Data for 03/17/2016

Time Sea-Level Adjusted Pressure Absolute Pressure Temperature Relative Humidity Dew Point   
(mb) (inHg) (mb) (inHg) (C) (F) (%) (C) (F)
00:05 1019 30.09 848 25.04 -2.8 27 88 -4.5 23.9
00:10 1019 30.09 848 25.04 -3 26.7 88 -4.6 23.7
00:15 1019 30.09 848 25.04 -3 26.6 89 -4.6 23.8
00:20 1019 30.09 848 25.04 -3 26.7 88 -4.7 23.6
00:25 1019 30.09 848 25.04 -3 26.7 89 -4.5 23.9
00:30 1019 30.09 848 25.04 -3 26.6 91 -4.3 24.3
00:35 1019 30.09 848 25.04 -3.1 26.5 91 -4.4 24.1
00:40 1019 30.09 848 25.04 -3.3 26.1 92 -4.4 24
00:45 1019 30.09 848 25.04 -3.3 26 92 -4.5 23.9
00:50 1018 30.06 848 25.04 -3.4 25.9 92 -4.5 23.9
00:55 1018 30.06 848 25.04 -3.4 25.9 92 -4.5 23.9
01:00 1018 30.06 848 25.04 -3.4 26 91 -4.6 23.7
01:05 1018 30.06 848 25.04 -3.4 26 91 -4.6 23.6
01:10 1018 30.06 848 25.04 -3.4 25.9 91 -4.7 23.6
01:15 1018 30.06 848 25.04 -3.4 25.8 91 -4.7 23.6
01:20 1018 30.06 848 25.04 -3.4 25.9 91 -4.7 23.6
01:25 1018 30.06 848 25.04 -3.4 25.8 91 -4.7 23.5
01:30 1018 30.06 848 25.04 -3.5 25.8 91 -4.7 23.6
01:35 1018 30.06 848 25.04 -3.5 25.6 92 -4.7 23.5
01:40 1018 30.06 848 25.04 -3.6 25.6 92 -4.7 23.5
01:45 1018 30.06 848 25.04 -3.6 25.5 92 -4.7 23.5
01:50 1018 30.06 848 25.04 -3.6 25.6 92 -4.7 23.6
01:55 1018 30.06 848 25.04 -3.5 25.6 92 -4.6 23.6
02:00 1018 30.06 848 25.04 -3.5 25.7 92 -4.6 23.7
02:05 1018 30.06 848 25.04 -3.4 25.8 92 -4.5 23.9
02:10 1018 30.06 848 25.04 -3.3 26 92 -4.5 24
02:15 1018 30.06 848 25.04 -3.2 26.3 91 -4.4 24.1
02:20 1018 30.06 848 25.04 -3.1 26.4 91 -4.4 24.1
02:25 1018 30.06 848 25.04 -3.1 26.4 91 -4.3 24.2
02:30 1018 30.06 848 25.04 -3.2 26.3 92 -4.4 24.2
02:35 1018 30.06 848 25.04 -3.2 26.2 92 -4.4 24.1
02:40 1018 30.06 848 25.04 -3.3 26.1 92 -4.4 24
02:45 1018 30.06 848 25.04 -3.4 25.8 92 -4.5 23.9
02:50 1018 30.06 848 25.04 -3.5 25.7 92 -4.6 23.7
02:55 1018 30.06 847 25.01 -3.6 25.6 92 -4.7 23.6
03:00 1018 30.06 847 25.01 -3.6 25.4 92 -4.7 23.5
03:05 1018 30.06 847 25.01 -3.7 25.4 92 -4.7 23.5
03:10 1018 30.06 847 25.01 -3.7 25.4 91 -4.9 23.2
03:15 1018 30.06 847 25.01 -3.6 25.4 91 -4.9 23.1
03:20 1018 30.06 847 25.01 -3.6 25.5 90 -5 23
03:25 1018 30.06 847 25.01 -3.6 25.4 90 -5 22.9
03:30 1018 30.06 847 25.01 -3.7 25.3 90 -5.1 22.9
03:35 1018 30.06 847 25.01 -3.8 25.2 90 -5.2 22.7
03:40 1018 30.06 847 25.01 -3.8 25.2 90 -5.1 22.8
03:45 1018 30.06 847 25.01 -3.7 25.4 89 -5.3 22.5
03:50 1018 30.06 847 25.01 -3.5 25.7 88 -5.3 22.5
03:55 1018 30.06 847 25.01 -3.4 25.8 87 -5.3 22.5
04:00 1018 30.06 847 25.01 -3.4 25.9 86 -5.4 22.2
04:05 1018 30.06 847 25.01 -3.5 25.7 87 -5.3 22.4
04:10 1018 30.06 847 25.01 -3.6 25.4 88 -5.4 22.2
04:15 1018 30.06 847 25.01 -3.7 25.3 88 -5.4 22.3
04:20 1018 30.06 848 25.04 -3.6 25.6 87 -5.4 22.3
04:25 1018 30.06 848 25.04 -3.5 25.8 83 -6 21.3
04:30 1018 30.06 848 25.04 -3.4 25.9 80 -6.3 20.6
04:35 1018 30.06 848 25.04 -3.2 26.2 80 -6.2 20.9
04:40 1018 30.06 848 25.04 -3.2 26.2 80 -6.2 20.9
04:45 1018 30.06 848 25.04 -3.3 26 83 -5.8 21.6
04:50 1019 30.09 848 25.04 -3.6 25.5 84 -5.9 21.4
04:55 1019 30.09 848 25.04 -3.7 25.4 85 -5.9 21.3
05:00 1019 30.09 848 25.04 -3.6 25.5 84 -5.8 21.5
05:05 1019 30.09 848 25.04 -3.5 25.7 84 -5.8 21.5
05:10 1019 30.09 848 25.04 -3.5 25.7 84 -5.9 21.4
05:15 1019 30.09 848 25.04 -3.4 25.8 83 -5.9 21.3
05:20 1019 30.09 848 25.04 -3.4 26 82 -6 21.2
05:25 1019 30.09 848 25.04 -3.3 26 81 -6.1 21
05:30 1019 30.09 848 25.04 -3.4 26 81 -6.2 20.9
05:35 1019 30.09 848 25.04 -3.3 26 78 -6.5 20.2
05:40 1019 30.09 848 25.04 -3.2 26.2 78 -6.5 20.3
05:45 1019 30.09 848 25.04 -3.2 26.2 77 -6.6 20.1
05:50 1019 30.09 848 25.04 -3.2 26.3 78 -6.5 20.3
05:55 1019 30.09 848 25.04 -3.3 26.1 78 -6.6 20.1
06:00 1019 30.09 848 25.04 -3.4 25.9 78 -6.7 20
06:05 1019 30.09 848 25.04 -3.4 25.9 77 -6.8 19.8
06:10 1019 30.09 848 25.04 -3.4 25.9 78 -6.7 20
06:15 1019 30.09 848 25.04 -3.5 25.8 77 -6.9 19.6
06:20 1019 30.09 848 25.04 -3.4 25.9 76 -7 19.5
06:25 1019 30.09 848 25.04 -3.4 25.9 76 -7 19.4
06:30 1019 30.09 848 25.04 -3.6 25.5 77 -7.1 19.2
06:35 1019 30.09 848 25.04 -3.7 25.3 77 -7.2 19.1
06:40 1019 30.09 848 25.04 -3.8 25.2 75 -7.5 18.5
06:45 1019 30.09 848 25.04 -3.8 25.2 77 -7.2 19
06:50 1019 30.09 848 25.04 -3.9 25 77 -7.4 18.8
06:55 1019 30.09 848 25.04 -4 24.9 77 -7.4 18.7
07:00 1019 30.09 848 25.04 -4 24.7 77 -7.5 18.4
07:05 1019 30.09 848 25.04 -4.2 24.5 77 -7.5 18.4
07:10 1019 30.09 848 25.04 -4.2 24.4 77 -7.7 18.2
07:15 1019 30.09 848 25.04 -4.3 24.3 76 -7.9 17.9
07:20 1019 30.09 849 25.07 -4.3 24.3 75 -8 17.6
07:25 1019 30.09 849 25.07 -4.3 24.3 75 -8 17.6
07:30 1019 30.09 849 25.07 -4.1 24.6 75 -7.9 17.7
07:35 1019 30.09 849 25.07 -4 24.7 74 -8 17.6
07:40 1019 30.09 849 25.07 -4.1 24.6 76 -7.8 18
07:45 1020 30.12 849 25.07 -4.1 24.7 76 -7.7 18.2
07:50 1020 30.12 849 25.07 -3.9 25 76 -7.5 18.5
07:55 1020 30.12 849 25.07 -3.7 25.3 76 -7.4 18.7
08:00 1020 30.12 849 25.07 -3.6 25.5 76 -7.3 18.8
08:05 1020 30.12 849 25.07 -3.6 25.6 77 -7.1 19.3
08:10 1020 30.12 849 25.07 -3.2 26.2 74 -7.1 19.2
08:15 1020 30.12 849 25.07 -3.2 26.3 74 -7.2 19
08:20 1020 30.12 849 25.07 -3.2 26.2 74 -7.3 18.9
08:25 1020 30.12 849 25.07 -3.3 26.1 74 -7.3 18.8
08:30 1020 30.12 849 25.07 -3.1 26.5 73 -7.3 18.9
08:35 1020 30.12 849 25.07 -2.7 27.1 72 -7.1 19.2
08:40 1020 30.12 849 25.07 -2.5 27.5 70 -7.2 19
08:45 1020 30.12 849 25.07 -2.5 27.4 68 -7.7 18.2
08:50 1020 30.12 849 25.07 -2.8 27 68 -8 17.7
08:55 1020 30.12 849 25.07 -2.6 27.3 67 -7.8 17.9
09:00 1020 30.12 849 25.07 -2.4 27.6 69 -7.3 18.9
09:05 1020 30.12 849 25.07 -1.8 28.7 68 -7 19.3
09:10 1020 30.12 849 25.07 -1.9 28.5 71 -6.5 20.3
09:15 1020 30.12 849 25.07 -2.3 27.9 71 -6.9 19.6
09:20 1020 30.12 849 25.07 -2.9 26.9 75 -6.8 19.8
09:25 1020 30.12 849 25.07 -3.2 26.3 77 -6.7 19.9
09:30 1020 30.12 849 25.07 -2.8 26.9 75 -6.7 19.9
09:35 1020 30.12 849 25.07 -2.4 27.7 72 -6.8 19.7
09:40 1020 30.12 849 25.07 -2.1 28.3 69 -7 19.4
09:45 1020 30.12 849 25.07 -2.3 27.9 70 -7 19.3
09:50 1020 30.12 849 25.07 -1.7 29 68 -6.8 19.7
09:55 1020 30.12 849 25.07 -2 28.4 69 -6.9 19.5
10:00 1020 30.12 849 25.07 -2.2 28 70 -6.9 19.6
10:05 1020 30.12 849 25.07 -1.8 28.7 69 -6.9 19.6
10:10 1020 30.12 849 25.07 -1.6 29 68 -6.7 19.9
10:15 1020 30.12 849 25.07 -1.8 28.8 71 -6.4 20.5
10:20 1020 30.12 849 25.07 -1.3 29.6 66 -7 19.5
10:25 1020 30.12 849 25.07 -1.3 29.7 67 -6.7 20
10:30 1020 30.12 849 25.07 -1.4 29.6 68 -6.5 20.3
10:35 1020 30.12 849 25.07 -0.8 30.6 61 -7.3 18.8
10:40 1020 30.12 849 25.07 -0.9 30.3 64 -6.9 19.7
10:45 1020 30.12 849 25.07 -0.4 31.3 57 -8 17.7
10:50 1020 30.12 849 25.07 0.5 32.9 51 -8.4 16.8
10:55 1020 30.12 849 25.07 0.7 33.2 52 -8 17.6
11:00 1020 30.12 849 25.07 0.2 32.3 53 -8.4 17
11:05 1020 30.12 849 25.07 -0.2 31.6 55 -8.3 17.1
11:10 1020 30.12 849 25.07 -0.1 31.8 55 -8.2 17.3
11:15 1020 30.12 849 25.07 0.2 32.3 54 -8.2 17.3
11:20 1020 30.12 849 25.07 0 32 69 -4.9 23.1
11:25 1020 30.12 849 25.07 -0.9 30.4 73 -5.2 22.7
11:30 1020 30.12 849 25.07 -1 30.2 71 -5.6 21.9
11:35 1020 30.12 850 25.1 -1.1 29.9 72 -5.6 21.9
11:40 1020 30.12 850 25.1 -1.3 29.7 73 -5.6 22
11:45 1020 30.12 850 25.1 -1.5 29.3 73 -5.7 21.7
11:50 1020 30.12 850 25.1 -1 30.3 68 -6.1 21.1
11:55 1020 30.12 850 25.1 -1.3 29.7 72 -5.7 21.7
12:00 1020 30.12 850 25.1 -1.4 29.5 69 -6.4 20.5
12:05 1021 30.15 850 25.1 -1.1 30 65 -6.8 19.8
12:10 1021 30.15 850 25.1 -1.8 28.8 70 -6.5 20.3
12:15 1021 30.15 850 25.1 -1.8 28.7 69 -6.7 19.9
12:20 1021 30.15 850 25.1 -0.9 30.4 68 -6.2 20.9
12:25 1021 30.15 850 25.1 -0.6 30.9 71 -5.3 22.5
12:30 1021 30.15 850 25.1 -1.1 30 70 -5.8 21.5
12:35 1020 30.12 850 25.1 -1.6 29.1 72 -6 21.2
12:40 1020 30.12 850 25.1 -1.4 29.4 71 -6.1 21
12:45 1020 30.12 850 25.1 -1.7 29 71 -6.3 20.6
12:50 1020 30.12 850 25.1 -1.5 29.3 69 -6.4 20.5
12:55 1020 30.12 850 25.1 -1 30.1 64 -7 19.4
13:00 1020 30.12 850 25.1 -0.9 30.3 71 -5.5 22.1
13:05 1020 30.12 850 25.1 -1.8 28.8 75 -5.6 21.9
13:10 1020 30.12 850 25.1 -1.6 29.1 74 -5.7 21.7
13:15 1020 30.12 850 25.1 -1.4 29.5 71 -5.9 21.4
13:20 1020 30.12 850 25.1 -1.3 29.7 70 -6.2 20.9
13:25 1020 30.12 850 25.1 -0.7 30.7 69 -5.7 21.8
13:30 1020 30.12 850 25.1 -0.2 31.7 65 -6.1 21.1
13:35 1020 30.12 850 25.1 -0.5 31.1 64 -6.5 20.3
13:40 1020 30.12 850 25.1 -0.2 31.6 62 -6.7 20
13:45 1020 30.12 850 25.1 0.2 32.4 63 -5.9 21.3
13:50 1020 30.12 850 25.1 0.5 32.9 62 -6.1 21.1
13:55 1020 30.12 850 25.1 0.4 32.7 54 -7.8 18
14:00 1020 30.12 850 25.1 0.1 32.1 56 -7.8 18
14:05 1020 30.12 850 25.1 0.6 33.1 56 -7.2 19.1
14:10 1020 30.12 850 25.1 0.4 32.7 56 -7.5 18.5
14:15 1020 30.12 850 25.1 0.7 33.3 50 -8.6 16.6
14:20 1020 30.12 850 25.1 0.9 33.6 52 -7.8 17.9
14:25 1020 30.12 850 25.1 0.4 32.6 59 -6.7 19.9
14:30 1020 30.12 850 25.1 0 32 62 -6.5 20.4
14:35 1020 30.12 850 25.1 -0.2 31.7 60 -7 19.3
14:40 1021 30.15 850 25.1 -0.8 30.5 63 -7 19.4
14:45 1021 30.15 850 25.1 -1.1 30 70 -5.9 21.3
14:50 1021 30.15 850 25.1 -1.1 30 71 -5.8 21.5
14:55 1021 30.15 850 25.1 -2 28.5 75 -5.8 21.5
15:00 1021 30.15 850 25.1 -2.6 27.4 81 -5.4 22.4
15:05 1021 30.15 850 25.1 -2.7 27.1 82 -5.5 22.1
15:10 1021 30.15 850 25.1 -2.9 26.8 82 -5.5 22.2
15:15 1021 30.15 850 25.1 -2.6 27.4 82 -5.2 22.7
15:20 1021 30.15 850 25.1 -2.8 27 85 -4.9 23.2
15:25 1021 30.15 850 25.1 -2.8 27 86 -4.8 23.4
15:30 1021 30.15 850 25.1 -2.8 27 85 -5 22.9
15:35 1021 30.15 850 25.1 -2.9 26.8 83 -5.5 22.2
15:40 1021 30.15 850 25.1 -2.8 26.9 81 -5.7 21.7
15:45 1021 30.15 850 25.1 -2.7 27.2 82 -5.4 22.3
15:50 1021 30.15 850 25.1 -2.8 26.9 82 -5.5 22.1
15:55 1021 30.15 850 25.1 -3.1 26.4 80 -6.1 21.1
16:00 1021 30.15 850 25.1 -2.6 27.4 79 -5.7 21.8
16:05 1021 30.15 850 25.1 -2.5 27.4 79 -5.6 21.8
16:10 1021 30.15 850 25.1 -2.6 27.3 77 -6.2 20.8
16:15 1021 30.15 850 25.1 -2.6 27.3 73 -6.8 19.7
16:20 1021 30.15 850 25.1 -2.6 27.4 73 -6.8 19.8
16:25 1021 30.15 850 25.1 -2.5 27.5 71 -7.1 19.3
16:30 1021 30.15 850 25.1 -2.4 27.7 72 -6.7 20
16:35 1021 30.15 850 25.1 -2.2 28 72 -6.6 20.1
16:40 1021 30.15 850 25.1 -2 28.4 70 -6.8 19.8
16:45 1021 30.15 850 25.1 -1.8 28.8 65 -7.4 18.6
16:50 1021 30.15 850 25.1 -1.5 29.3 66 -7.1 19.2
16:55 1021 30.15 850 25.1 -1.3 29.6 62 -7.7 18.2
17:00 1021 30.15 850 25.1 -1.3 29.6 62 -7.8 18
17:05 1021 30.15 850 25.1 -0.8 30.6 55 -8.7 16.3
17:10 1021 30.15 851 25.13 -0.9 30.4 57 -8.3 17.1
17:15 1021 30.15 851 25.13 -0.8 30.5 58 -8.2 17.3
17:20 1021 30.15 851 25.13 -1.1 30.1 60 -7.9 17.7
17:25 1022 30.18 851 25.13 -1.3 29.6 61 -7.9 17.7
17:30 1022 30.18 851 25.13 -1.5 29.3 62 -7.8 18
17:35 1022 30.18 851 25.13 -1.2 29.8 61 -7.8 17.9
17:40 1022 30.18 851 25.13 -0.8 30.5 57 -8.2 17.3
17:45 1022 30.18 851 25.13 -0.5 31.1 55 -8.4 16.9
17:50 1022 30.18 851 25.13 -0.6 31 57 -8.1 17.5
17:55 1022 30.18 851 25.13 -0.7 30.7 58 -8 17.5
18:00 1022 30.18 851 25.13 -0.9 30.4 62 -7.4 18.8
18:05 1022 30.18 851 25.13 -1.2 29.8 61 -7.8 18
18:10 1022 30.18 851 25.13 -1.4 29.5 61 -8 17.7
18:15 1022 30.18 851 25.13 -1.3 29.6 62 -7.8 18
18:20 1022 30.18 851 25.13 -1.3 29.7 60 -8 17.6
18:25 1022 30.18 851 25.13 -1.3 29.6 61 -7.9 17.7
18:30 1022 30.18 851 25.13 -1.4 29.4 61 -8 17.6
18:35 1022 30.18 851 25.13 -1.5 29.2 65 -7.2 19
18:40 1022 30.18 851 25.13 -1.6 29.2 67 -6.9 19.5
18:45 1022 30.18 851 25.13 -1.6 29.1 70 -6.4 20.5
18:50 1022 30.18 851 25.13 -1.7 28.9 71 -6.3 20.7
18:55 1022 30.18 851 25.13 -1.9 28.5 73 -6.2 20.8
19:00 1022 30.18 851 25.13 -2 28.4 74 -6.1 21.1
19:05 1022 30.18 851 25.13 -2.1 28.3 73 -6.3 20.6
19:10 1022 30.18 851 25.13 -2.2 28 73 -6.5 20.3
19:15 1022 30.18 852 25.16 -2.3 27.9 74 -6.4 20.5
19:20 1022 30.18 852 25.16 -2.3 27.9 64 -8.2 17.2
19:25 1022 30.18 852 25.16 -2.3 27.8 65 -8 17.6
19:30 1022 30.18 852 25.16 -2.2 28 66 -7.7 18.1
19:35 1023 30.21 852 25.16 -2.2 28 72 -6.7 20
19:40 1023 30.21 852 25.16 -2.3 27.8 74 -6.3 20.7
19:45 1023 30.21 852 25.16 -2.3 27.8 72 -6.6 20
19:50 1023 30.21 852 25.16 -2.1 28.2 73 -6.3 20.7
19:55 1023 30.21 852 25.16 -2.3 27.9 76 -6 21.2
20:00 1023 30.21 852 25.16 -2.6 27.3 73 -6.7 19.9
20:05 1023 30.21 852 25.16 -2.6 27.2 69 -7.6 18.3
20:10 1023 30.21 852 25.16 -2.7 27.2 68 -7.7 18.1
20:15 1023 30.21 852 25.16 -2.5 27.4 65 -8.3 17
20:20 1023 30.21 852 25.16 -2.7 27.1 57 -10.2 13.6
20:25 1023 30.21 852 25.16 -2.8 26.9 53 -11.1 12.1
20:30 1023 30.21 852 25.16 -2.9 26.7 55 -10.8 12.6
20:35 1023 30.21 852 25.16 -3.1 26.5 55 -10.9 12.4
20:40 1023 30.21 852 25.16 -3.2 26.2 56 -10.8 12.6
20:45 1023 30.21 852 25.16 -3.4 26 57 -10.7 12.8
20:50 1023 30.21 852 25.16 -3.5 25.7 58 -10.5 13
20:55 1023 30.21 852 25.16 -3.6 25.6 58 -10.6 12.9
21:00 1023 30.21 852 25.16 -3.6 25.5 59 -10.6 12.9
21:05 1023 30.21 852 25.16 -3.6 25.5 59 -10.6 12.9
21:10 1023 30.21 852 25.16 -3.6 25.5 58 -10.6 12.8
21:15 1023 30.21 852 25.16 -3.7 25.4 59 -10.6 12.9
21:20 1023 30.21 852 25.16 -3.7 25.4 59 -10.5 13
21:25 1023 30.21 853 25.19 -3.7 25.4 59 -10.6 12.8
21:30 1023 30.21 853 25.19 -3.5 25.7 74 -7.4 18.6
21:35 1024 30.24 853 25.19 -3.8 25.2 82 -6.4 20.5
21:40 1024 30.24 853 25.19 -4.2 24.5 85 -6.4 20.5
21:45 1024 30.24 853 25.19 -4.4 24 87 -6.3 20.7
21:50 1024 30.24 853 25.19 -4.7 23.5 88 -6.4 20.5
21:55 1024 30.24 853 25.19 -5 23 88 -6.7 20
22:00 1024 30.24 853 25.19 -5.1 22.9 89 -6.5 20.2
22:05 1024 30.24 853 25.19 -4.9 23.2 88 -6.6 20.1
22:10 1024 30.24 853 25.19 -4.9 23.1 89 -6.4 20.4
22:15 1024 30.24 853 25.19 -5.1 22.9 89 -6.5 20.2
22:20 1024 30.24 853 25.19 -5.4 22.3 90 -6.7 19.9
22:25 1024 30.24 853 25.19 -5.5 22.1 90 -7 19.5
22:30 1024 30.24 853 25.19 -5.7 21.8 89 -7.2 19
22:35 1024 30.24 853 25.19 -5.8 21.6 88 -7.4 18.6
22:40 1024 30.24 853 25.19 -5.8 21.6 87 -7.5 18.4
22:45 1024 30.24 853 25.19 -5.8 21.6 86 -7.8 17.9
22:50 1024 30.24 853 25.19 -5.8 21.7 84 -8.1 17.4
22:55 1024 30.24 853 25.19 -5.7 21.8 82 -8.2 17.2
23:00 1024 30.24 853 25.19 -5.6 21.8 82 -8.3 17.1
23:05 1024 30.24 853 25.19 -5.4 22.2 80 -8.4 16.9
23:10 1024 30.24 853 25.19 -5.3 22.4 78 -8.6 16.5
23:15 1024 30.24 853 25.19 -5.3 22.4 79 -8.5 16.7
23:20 1024 30.24 853 25.19 -5.5 22.1 80 -8.4 16.8
23:25 1024 30.24 853 25.19 -5.5 22.1 79 -8.6 16.5
23:30 1024 30.24 853 25.19 -5.4 22.3 77 -8.9 16
23:35 1024 30.24 853 25.19 -5.2 22.6 77 -8.7 16.4
23:40 1024 30.24 853 25.19 -5.4 22.4 78 -8.6 16.5
23:45 1024 30.24 853 25.19 -5.5 22.1 77 -8.9 16
23:50 1024 30.24 853 25.19 -5.4 22.2 75 -9.1 15.6
23:55 1024 30.24 853 25.19 -5.3 22.4 74 -9.2 15.4
24:00 1024 30.24 853 25.19 -5.3 22.5 72 -9.5 14.9